Time;durP1;ratioP1;P1;durP2;ratioP2;P2;SDS_P1;SDS_P2;PMS_P1;PMS_P2;Temp;Humidity;BMP_temperature;BMP_pressure;BME280_temperature;BME280_humidity;BME280_pressure;Samples;Min_cycle;Max_cycle;Signal;HPM_P1;HPM_P2
2022/01/19 00:03:26;;;;;;;4.40;3.00;;;5.70;39.10;;;;;;10513309;28;20235;-67
2022/01/19 00:08:29;;;;;;;4.10;3.10;;;5.60;39.00;;;;;;10511205;28;20632;-66
2022/01/19 00:13:33;;;;;;;6.27;3.53;;;5.60;39.10;;;;;;10517536;28;20234;-67
2022/01/19 00:18:37;;;;;;;4.00;3.30;;;5.60;39.20;;;;;;10517030;28;20741;-67
2022/01/19 00:23:40;;;;;;;3.50;3.00;;;5.50;38.70;;;;;;10515550;28;20596;-67
2022/01/19 00:28:44;;;;;;;4.93;3.37;;;5.50;38.90;;;;;;10509415;28;20234;-67
2022/01/19 00:33:49;;;;;;;3.87;3.47;;;5.50;38.90;;;;;;10509461;28;20224;-67
2022/01/19 00:38:52;;;;;;;5.97;4.03;;;5.40;38.90;;;;;;10509907;28;20324;-66
2022/01/19 00:43:55;;;;;;;4.33;3.57;;;5.40;38.80;;;;;;10511832;28;20775;-67
2022/01/19 00:49:00;;;;;;;5.97;4.30;;;5.30;38.80;;;;;;10509526;28;20228;-67
2022/01/19 00:54:03;;;;;;;5.73;4.30;;;5.30;38.80;;;;;;10510009;28;20220;-67
2022/01/19 00:59:06;;;;;;;8.10;4.30;;;5.30;38.90;;;;;;10510698;28;20232;-69
2022/01/19 01:04:11;;;;;;;5.20;4.10;;;5.20;38.90;;;;;;10511869;28;20227;-69
2022/01/19 01:09:15;;;;;;;5.77;4.67;;;5.10;38.80;;;;;;10513590;28;20231;-69
2022/01/19 01:19:40;;;;;;;5.33;4.40;;;5.00;38.90;;;;;;10509302;28;20223;-69
2022/01/19 01:24:44;;;;;;;5.73;3.73;;;4.90;38.80;;;;;;10512990;28;20231;-69
2022/01/19 01:29:47;;;;;;;5.47;4.50;;;4.90;39.10;;;;;;10510376;28;20727;-69
2022/01/19 01:34:52;;;;;;;6.40;4.20;;;4.80;39.00;;;;;;10508793;28;20222;-69
2022/01/19 01:39:56;;;;;;;5.73;3.90;;;4.80;39.00;;;;;;10509571;28;20719;-68
2022/01/19 01:45:01;;;;;;;5.83;4.10;;;4.80;39.00;;;;;;10508303;28;20234;-68
2022/01/19 01:55:27;;;;;;;5.00;4.03;;;4.80;38.90;;;;;;10506964;28;20244;-68
2022/01/19 02:00:31;;;;;;;5.23;4.13;;;4.70;38.90;;;;;;10509913;28;20226;-68
2022/01/19 02:05:39;;;;;;;6.50;4.30;;;4.60;38.90;;;;;;10509317;28;20234;-68
2022/01/19 02:10:58;;;;;;;4.57;3.77;;;4.60;38.90;;;;;;10500894;28;20590;-68
2022/01/19 02:16:20;;;;;;;4.60;3.90;;;4.50;39.00;;;;;;10506650;28;20223;-68
2022/01/19 02:21:46;;;;;;;5.83;4.13;;;4.50;38.90;;;;;;10509066;28;20231;-68
2022/01/19 02:27:00;;;;;;;5.10;3.67;;;4.50;38.80;;;;;;10510413;28;20228;-68
2022/01/19 02:43:03;;;;;;;4.27;3.30;;;4.40;38.80;;;;;;10468429;28;20219;-68
2022/01/19 02:53:28;;;;;;;5.53;3.87;;;4.30;39.00;;;;;;10510974;28;20225;-68
2022/01/19 02:58:31;;;;;;;4.80;3.47;;;4.20;38.80;;;;;;10516753;28;20220;-66
2022/01/19 03:08:56;;;;;;;4.07;3.17;;;4.20;39.00;;;;;;10514215;28;20211;-67
2022/01/19 03:14:00;;;;;;;4.17;3.33;;;4.10;38.90;;;;;;10514193;28;20223;-67
2022/01/19 03:19:04;;;;;;;3.50;2.90;;;4.10;39.00;;;;;;10516364;28;20219;-67
2022/01/19 03:24:11;;;;;;;4.10;3.27;;;4.00;38.90;;;;;;10515243;28;20234;-67
2022/01/19 03:29:14;;;;;;;4.03;3.00;;;4.00;39.00;;;;;;10517543;28;20346;-66
2022/01/19 03:34:17;;;;;;;3.63;2.90;;;4.00;39.10;;;;;;10512570;28;20232;-66
2022/01/19 03:39:22;;;;;;;4.17;2.90;;;4.00;39.20;;;;;;10511814;28;20683;-66
2022/01/19 03:44:26;;;;;;;4.40;2.73;;;3.90;39.20;;;;;;10512817;28;20312;-66
2022/01/19 03:49:33;;;;;;;3.17;2.57;;;3.90;39.30;;;;;;10516192;28;20259;-66
2022/01/19 03:54:40;;;;;;;2.83;2.30;;;3.90;39.20;;;;;;10513140;28;20577;-66
2022/01/19 03:59:43;;;;;;;3.80;2.67;;;3.90;39.40;;;;;;10519337;28;20216;-66
2022/01/19 04:04:51;;;;;;;2.83;2.53;;;3.80;38.90;;;;;;10513528;28;20625;-66
2022/01/19 04:10:11;;;;;;;4.77;2.73;;;3.80;38.80;;;;;;10511355;28;20231;-66
2022/01/19 04:15:18;;;;;;;3.60;2.80;;;3.70;39.00;;;;;;10515301;28;20224;-66
2022/01/19 04:20:25;;;;;;;4.43;2.33;;;3.60;39.10;;;;;;10509606;28;20242;-68
2022/01/19 04:25:31;;;;;;;3.90;2.63;;;3.50;39.20;;;;;;10515194;28;20260;-68
2022/01/19 04:30:35;;;;;;;3.37;2.47;;;3.50;39.40;;;;;;10511802;28;20224;-68
2022/01/19 04:35:47;;;;;;;4.47;3.23;;;3.50;39.20;;;;;;10508904;28;20588;-68
2022/01/19 04:46:44;;;;;;;3.00;2.70;;;3.50;39.20;;;;;;10509135;28;20239;-68
2022/01/19 05:02:48;;;;;;;7.00;4.47;;;3.40;39.00;;;;;;10507465;28;20310;-68
2022/01/19 05:08:00;;;;;;;8.43;5.70;;;3.30;39.10;;;;;;10508823;28;20226;-68
2022/01/19 05:18:25;;;;;;;4.87;3.90;;;3.20;39.20;;;;;;10507802;28;20335;-69
2022/01/19 05:23:28;;;;;;;5.80;4.10;;;3.10;39.10;;;;;;10512035;28;20239;-69
2022/01/19 05:28:33;;;;;;;5.63;4.10;;;3.10;39.10;;;;;;10510158;28;20229;-68
2022/01/19 05:33:36;;;;;;;6.47;3.97;;;3.10;39.30;;;;;;10510160;28;20224;-69
2022/01/19 05:38:39;;;;;;;7.03;4.00;;;3.10;39.30;;;;;;10513783;28;20228;-69
2022/01/19 05:43:44;;;;;;;4.50;3.70;;;3.10;39.40;;;;;;10506173;28;20220;-69
2022/01/19 05:48:47;;;;;;;7.57;6.13;;;3.00;39.20;;;;;;10511299;28;20220;-69
2022/01/19 05:53:51;;;;;;;7.00;5.20;;;3.00;39.00;;;;;;10507744;28;20231;-69
2022/01/19 05:58:55;;;;;;;7.77;6.00;;;3.00;38.90;;;;;;10509319;28;20722;-68
2022/01/19 06:03:58;;;;;;;8.47;6.40;;;2.90;39.10;;;;;;10514294;28;20223;-69
2022/01/19 06:09:02;;;;;;;10.93;6.90;;;2.90;39.10;;;;;;10507315;28;20231;-68
2022/01/19 06:14:07;;;;;;;6.97;5.67;;;2.80;39.10;;;;;;10509785;28;20224;-71
2022/01/19 06:19:10;;;;;;;8.30;6.03;;;2.80;41.60;;;;;;10504962;28;20234;-71
2022/01/19 06:24:13;;;;;;;8.30;6.00;;;2.90;40.70;;;;;;10509495;28;20235;-71
2022/01/19 06:29:18;;;;;;;6.37;4.77;;;3.00;39.90;;;;;;10512580;28;20221;-71
2022/01/19 06:34:21;;;;;;;4.47;3.50;;;3.00;39.70;;;;;;10509085;28;20227;-71
2022/01/19 06:39:24;;;;;;;4.07;3.60;;;2.90;39.40;;;;;;10506919;28;20224;-71
2022/01/19 06:44:29;;;;;;;6.13;4.10;;;2.90;39.30;;;;;;10508627;28;20224;-71
2022/01/19 06:49:32;;;;;;;5.53;3.57;;;2.80;39.40;;;;;;10511771;28;20230;-71
2022/01/19 06:54:35;;;;;;;6.07;4.63;;;2.70;39.30;;;;;;10505966;28;20220;-71
2022/01/19 06:59:40;;;;;;;10.10;6.57;;;2.60;39.20;;;;;;10508370;28;20219;-70
2022/01/19 07:04:49;;;;;;;7.37;6.13;;;2.50;39.30;;;;;;10506597;28;20219;-70
2022/01/19 07:09:52;;;;;;;7.40;5.57;;;2.40;39.50;;;;;;10508673;28;20224;-70
2022/01/19 07:14:56;;;;;;;5.93;4.80;;;2.30;39.80;;;;;;10512456;28;20224;-70
2022/01/19 07:19:59;;;;;;;8.20;6.17;;;2.30;40.10;;;;;;10511034;28;20735;-70
2022/01/19 07:25:03;;;;;;;15.17;9.63;;;2.20;40.00;;;;;;10508069;28;20215;-71
2022/01/19 07:30:10;;;;;;;13.67;9.57;;;2.20;40.10;;;;;;10509048;28;20228;-71
2022/01/19 07:35:14;;;;;;;9.50;8.50;;;2.20;40.40;;;;;;10507508;28;20216;-70
2022/01/19 07:40:18;;;;;;;8.03;6.13;;;2.30;40.50;;;;;;10511623;28;20224;-70
2022/01/19 07:45:22;;;;;;;8.30;6.70;;;2.30;40.50;;;;;;10514528;28;20605;-70
2022/01/19 07:50:25;;;;;;;11.07;8.77;;;2.40;40.60;;;;;;10516280;28;20228;-70
2022/01/19 07:55:28;;;;;;;10.63;9.53;;;2.30;40.90;;;;;;10516515;28;20547;-70
2022/01/19 08:00:35;;;;;;;7.77;6.57;;;2.40;41.30;;;;;;10515269;28;20603;-70
2022/01/19 08:05:38;;;;;;;7.93;6.27;;;2.40;41.50;;;;;;10514458;28;20621;-71
2022/01/19 08:10:42;;;;;;;8.00;6.00;;;2.50;41.50;;;;;;10510973;28;20590;-71
2022/01/19 08:15:47;;;;;;;6.87;5.00;;;2.60;41.70;;;;;;10513413;28;20224;-70
2022/01/19 08:20:51;;;;;;;5.87;5.27;;;2.60;41.80;;;;;;10511661;28;20269;-70
2022/01/19 08:25:54;;;;;;;6.07;5.00;;;2.70;41.80;;;;;;10517713;28;20703;-70
2022/01/19 08:30:59;;;;;;;6.23;5.27;;;2.90;42.00;;;;;;10514583;28;20707;-70
2022/01/19 08:36:02;;;;;;;7.37;5.67;;;2.90;42.10;;;;;;10510246;28;20247;-70
2022/01/19 08:41:05;;;;;;;7.77;6.47;;;2.90;41.80;;;;;;10516022;28;20235;-71
2022/01/19 08:46:10;;;;;;;5.90;5.00;;;3.10;41.90;;;;;;10513987;28;20227;-78
2022/01/19 08:51:13;;;;;;;6.40;5.60;;;3.10;42.20;;;;;;10508404;28;20220;-71
2022/01/19 08:56:17;;;;;;;8.80;5.00;;;3.10;42.00;;;;;;10511960;28;20232;-70
2022/01/19 09:01:21;;;;;;;8.10;5.70;;;3.30;42.20;;;;;;10511238;28;20261;-71
2022/01/19 09:06:25;;;;;;;7.87;6.73;;;3.40;42.40;;;;;;10511929;28;20227;-70
2022/01/19 09:11:28;;;;;;;7.27;6.50;;;3.30;42.20;;;;;;10510732;28;20792;-71
2022/01/19 09:16:33;;;;;;;8.43;7.57;;;3.40;42.30;;;;;;10511746;28;20228;-71
2022/01/19 09:21:36;;;;;;;9.13;7.73;;;3.40;42.60;;;;;;10504749;28;20695;-71
2022/01/19 09:26:39;;;;;;;10.27;8.63;;;3.60;42.60;;;;;;10509715;28;20596;-71
2022/01/19 09:31:44;;;;;;;10.93;9.53;;;3.50;42.60;;;;;;10510970;28;20385;-71
2022/01/19 09:36:48;;;;;;;11.60;9.77;;;3.70;42.90;;;;;;10510386;28;20229;-71
2022/01/19 09:41:53;;;;;;;10.60;9.50;;;3.60;42.80;;;;;;10509106;28;20612;-70
2022/01/19 09:46:58;;;;;;;10.93;9.83;;;3.70;42.90;;;;;;10507530;28;20255;-71
2022/01/19 09:52:01;;;;;;;13.03;11.37;;;3.80;43.00;;;;;;10508739;28;20224;-70
2022/01/19 09:57:05;;;;;;;12.47;10.73;;;3.90;42.90;;;;;;10510224;28;20228;-70
2022/01/19 10:02:12;;;;;;;13.77;11.97;;;4.00;42.90;;;;;;10509313;28;20292;-70
2022/01/19 10:07:19;;;;;;;12.70;11.40;;;4.10;43.00;;;;;;10511940;28;20276;-70
2022/01/19 10:17:55;;;;;;;13.17;10.70;;;4.20;43.60;;;;;;10510754;28;20224;-69
2022/01/19 10:22:58;;;;;;;13.00;11.67;;;4.30;43.20;;;;;;10507963;28;20731;-70
2022/01/19 10:28:02;;;;;;;13.40;12.00;;;4.40;42.90;;;;;;10504293;28;20238;-69
2022/01/19 10:33:06;;;;;;;14.13;12.20;;;4.40;42.90;;;;;;10507137;28;20228;-69
2022/01/19 10:38:16;;;;;;;15.27;13.63;;;4.40;43.10;;;;;;10506031;28;20219;-69
2022/01/19 10:43:30;;;;;;;13.37;11.97;;;4.50;43.30;;;;;;10506609;28;20219;-71
2022/01/19 10:48:37;;;;;;;15.60;12.80;;;4.60;43.50;;;;;;10512774;28;20243;-72
2022/01/19 10:53:43;;;;;;;13.70;12.37;;;4.70;43.30;;;;;;10494925;28;20235;-72
2022/01/19 10:58:54;;;;;;;12.07;10.90;;;4.80;43.20;;;;;;10501762;28;20293;-72
2022/01/19 11:04:17;;;;;;;15.10;13.23;;;4.80;43.70;;;;;;10501673;28;20238;-72
2022/01/19 11:09:24;;;;;;;15.77;13.80;;;4.90;44.50;;;;;;10500186;28;20231;-73
2022/01/19 11:14:27;;;;;;;18.27;14.37;;;5.00;43.10;;;;;;10506379;28;20353;-72
2022/01/19 11:19:37;;;;;;;14.57;12.87;;;5.10;43.00;;;;;;10504603;28;20236;-72
2022/01/19 11:24:53;;;;;;;14.03;12.63;;;5.20;43.60;;;;;;10510061;28;20228;-72
2022/01/19 11:30:14;;;;;;;15.40;12.93;;;5.30;43.30;;;;;;10506290;28;20235;-73
2022/01/19 11:35:34;;;;;;;14.60;13.10;;;5.40;43.50;;;;;;10509140;28;20370;-72
2022/01/19 11:40:40;;;;;;;16.20;14.43;;;5.60;44.00;;;;;;10504989;28;20254;-73
2022/01/19 11:45:43;;;;;;;14.40;13.07;;;5.70;43.30;;;;;;10512901;28;20234;-69
2022/01/19 11:50:50;;;;;;;15.03;13.47;;;5.90;43.50;;;;;;10512829;28;20224;-70
2022/01/19 11:56:08;;;;;;;15.13;13.67;;;6.00;43.30;;;;;;10512691;28;20234;-69
2022/01/19 12:01:23;;;;;;;15.23;13.67;;;6.20;43.70;;;;;;10511028;28;20223;-69
2022/01/19 12:06:35;;;;;;;15.03;13.57;;;6.40;43.20;;;;;;10494731;28;20619;-69
2022/01/19 12:11:44;;;;;;;15.83;14.13;;;6.50;43.00;;;;;;10496159;28;20306;-69
2022/01/19 12:17:01;;;;;;;15.07;13.57;;;6.70;42.80;;;;;;10495448;28;20224;-71
2022/01/19 12:22:12;;;;;;;16.30;14.70;;;6.90;42.80;;;;;;10499382;28;20718;-71
2022/01/19 12:27:27;;;;;;;15.63;13.63;;;7.10;42.80;;;;;;10500130;28;20224;-69
2022/01/19 12:32:49;;;;;;;14.40;12.90;;;7.20;42.90;;;;;;10500508;28;20223;-68
2022/01/19 12:37:55;;;;;;;17.20;15.50;;;7.40;42.30;;;;;;10502794;28;20235;-67
2022/01/19 12:43:01;;;;;;;13.83;12.53;;;7.50;42.00;;;;;;10492247;28;20215;-68
2022/01/19 12:48:07;;;;;;;14.30;12.93;;;7.50;41.90;;;;;;10495116;28;20227;-68
2022/01/19 12:53:29;;;;;;;13.73;12.43;;;7.60;41.60;;;;;;10492943;28;20219;-67
2022/01/19 12:58:34;;;;;;;15.20;13.70;;;7.70;41.50;;;;;;10492399;28;20958;-70
2022/01/19 13:03:41;;;;;;;15.73;14.13;;;7.80;41.40;;;;;;10499270;28;20227;-69
2022/01/19 13:08:55;;;;;;;14.63;13.23;;;7.80;41.20;;;;;;10496567;28;20239;-68
2022/01/19 13:14:01;;;;;;;14.60;13.20;;;7.80;41.10;;;;;;10496261;28;20226;-69
2022/01/19 13:19:08;;;;;;;15.13;13.63;;;7.90;41.50;;;;;;10493647;28;20223;-70
2022/01/19 13:24:17;;;;;;;15.17;13.67;;;7.90;41.20;;;;;;10496772;28;20228;-69
2022/01/19 13:29:24;;;;;;;13.73;12.40;;;8.00;41.30;;;;;;10496921;28;20228;-69
2022/01/19 13:34:28;;;;;;;14.70;13.20;;;8.10;41.50;;;;;;10507753;28;20234;-70
2022/01/19 13:39:34;;;;;;;15.07;13.60;;;8.20;41.00;;;;;;10512271;28;20243;-71
2022/01/19 13:44:44;;;;;;;14.70;12.53;;;8.20;41.00;;;;;;10514172;28;20220;-71
2022/01/19 13:49:53;;;;;;;13.63;12.23;;;8.20;41.10;;;;;;10516829;28;20301;-68
2022/01/19 13:54:58;;;;;;;20.67;16.30;;;8.30;40.60;;;;;;10507510;28;20598;-68
2022/01/19 14:00:12;;;;;;;25.00;22.40;;;8.30;40.80;;;;;;10503971;28;20239;-68
2022/01/19 14:05:15;;;;;;;22.93;19.83;;;8.30;40.30;;;;;;10509538;28;20231;-68
2022/01/19 14:10:19;;;;;;;15.83;14.23;;;8.40;40.90;;;;;;10511293;28;20235;-68
2022/01/19 14:15:26;;;;;;;15.13;13.63;;;8.40;40.60;;;;;;10508516;28;20216;-68
2022/01/19 14:20:29;;;;;;;14.07;12.67;;;8.40;40.30;;;;;;10512259;28;20730;-69
2022/01/19 14:25:37;;;;;;;14.80;13.23;;;8.40;40.50;;;;;;10509099;28;20223;-69
2022/01/19 14:30:41;;;;;;;14.90;13.40;;;8.40;40.20;;;;;;10505470;28;20228;-69
2022/01/19 14:36:05;;;;;;;13.50;12.17;;;8.40;40.30;;;;;;10503897;28;20231;-70
2022/01/19 14:41:16;;;;;;;13.90;12.63;;;8.40;40.40;;;;;;10502944;28;20601;-67
2022/01/19 14:46:26;;;;;;;13.60;12.30;;;8.40;40.30;;;;;;10500160;28;20444;-67
2022/01/19 14:51:31;;;;;;;14.03;12.73;;;8.40;40.20;;;;;;10499541;28;20233;-67
2022/01/19 14:56:44;;;;;;;15.10;13.60;;;8.40;40.10;;;;;;10506658;28;20231;-67
2022/01/19 15:01:50;;;;;;;15.13;12.77;;;8.40;39.90;;;;;;10507854;28;20215;-69
2022/01/19 15:06:58;;;;;;;13.50;12.10;;;8.30;40.20;;;;;;10504555;28;20227;-70
2022/01/19 15:12:03;;;;;;;13.70;12.33;;;8.30;40.20;;;;;;10464532;28;20217;-67
2022/01/19 15:17:12;;;;;;;16.60;10.77;;;8.30;40.00;;;;;;10464561;28;20593;-67
2022/01/19 15:22:15;;;;;;;12.33;11.23;;;8.30;43.10;;;;;;10467617;28;20278;-67
2022/01/19 15:27:20;;;;;;;13.17;11.90;;;8.30;42.20;;;;;;10467626;28;20240;-66
2022/01/19 15:32:23;;;;;;;13.57;12.33;;;8.40;41.60;;;;;;10467652;28;20235;-67
2022/01/19 15:37:26;;;;;;;16.27;13.27;;;8.40;40.70;;;;;;10463974;28;20233;-67
2022/01/19 15:42:32;;;;;;;15.57;14.07;;;8.40;40.30;;;;;;10471149;28;20216;-68
2022/01/19 15:47:36;;;;;;;26.53;19.90;;;8.30;39.60;;;;;;10469422;28;20215;-68
2022/01/19 15:52:40;;;;;;;17.53;15.27;;;8.20;39.70;;;;;;10491885;28;20225;-70
2022/01/19 15:57:45;;;;;;;17.63;15.47;;;8.10;39.70;;;;;;10467787;28;20232;-71
2022/01/19 16:02:49;;;;;;;20.63;17.23;;;8.00;39.70;;;;;;10473078;28;20223;-71
2022/01/19 16:07:52;;;;;;;17.77;15.90;;;7.90;40.50;;;;;;10476394;28;20232;-69
2022/01/19 16:12:57;;;;;;;20.47;18.27;;;7.80;40.00;;;;;;10492242;28;20227;-69
2022/01/19 16:18:00;;;;;;;17.83;15.93;;;7.80;39.70;;;;;;10474646;28;20235;-71
2022/01/19 16:28:31;;;;;;;18.07;16.20;;;7.60;39.70;;;;;;10513422;28;20715;-70
2022/01/19 16:33:34;;;;;;;17.03;15.23;;;7.50;39.10;;;;;;10504732;28;20226;-67
2022/01/19 16:38:40;;;;;;;15.10;13.53;;;7.40;39.30;;;;;;10505856;28;20243;-70
2022/01/19 16:43:45;;;;;;;17.47;15.73;;;7.20;39.30;;;;;;10510867;28;20223;-70
2022/01/19 16:49:16;;;;;;;21.70;17.83;;;7.00;39.50;;;;;;10505437;28;20219;-70
2022/01/19 16:54:19;;;;;;;21.43;18.63;;;6.90;39.80;;;;;;10509551;28;20224;-67
2022/01/19 16:59:26;;;;;;;18.33;16.43;;;6.80;39.90;;;;;;10509305;28;20228;-66
2022/01/19 17:04:32;;;;;;;20.20;18.03;;;6.80;39.90;;;;;;10510318;28;20216;-68
2022/01/19 17:09:35;;;;;;;18.93;17.03;;;6.70;40.00;;;;;;10506137;28;20235;-68
2022/01/19 17:14:42;;;;;;;14.67;13.13;;;6.60;40.10;;;;;;10504934;28;20254;-69
2022/01/19 17:19:46;;;;;;;15.00;13.37;;;6.50;40.20;;;;;;10490418;28;20232;-69
2022/01/19 17:24:50;;;;;;;19.07;16.73;;;6.40;40.40;;;;;;10465005;28;20704;-70
2022/01/19 17:29:55;;;;;;;17.03;15.13;;;6.40;40.60;;;;;;10470101;28;20227;-70
2022/01/19 17:35:01;;;;;;;17.60;15.73;;;6.40;40.70;;;;;;10480653;28;20227;-72
2022/01/19 17:40:05;;;;;;;22.47;18.37;;;6.40;40.70;;;;;;10508845;28;20235;-71
2022/01/19 17:45:16;;;;;;;28.57;23.70;;;6.40;40.60;;;;;;10512530;28;20230;-72
2022/01/19 17:50:34;;;;;;;24.37;20.33;;;6.40;40.80;;;;;;10510875;28;20254;-72
2022/01/19 17:55:38;;;;;;;27.93;24.43;;;6.30;40.90;;;;;;10511481;28;20215;-72
2022/01/19 18:00:43;;;;;;;23.43;19.90;;;6.30;41.10;;;;;;10507933;28;20219;-69
2022/01/19 18:05:46;;;;;;;20.90;17.93;;;6.20;41.10;;;;;;10507995;28;20768;-68
2022/01/19 18:10:49;;;;;;;19.17;17.10;;;6.10;41.20;;;;;;10506981;28;20880;-68
2022/01/19 18:15:54;;;;;;;17.83;15.97;;;6.10;41.50;;;;;;10509024;28;20222;-68
2022/01/19 18:20:57;;;;;;;16.80;15.10;;;6.00;41.70;;;;;;10505296;28;20288;-66
2022/01/19 18:26:01;;;;;;;16.70;14.90;;;6.00;41.80;;;;;;10503159;28;20547;-66
2022/01/19 18:31:05;;;;;;;14.97;13.43;;;6.00;42.00;;;;;;10508596;28;20216;-66
2022/01/19 18:36:09;;;;;;;13.87;12.43;;;6.00;42.10;;;;;;10498758;28;20255;-66
2022/01/19 18:41:12;;;;;;;13.53;12.13;;;6.10;42.30;;;;;;10505899;28;20220;-70
2022/01/19 18:46:17;;;;;;;13.73;12.17;;;6.20;42.30;;;;;;10507300;28;20274;-70
2022/01/19 18:51:20;;;;;;;15.40;13.90;;;6.30;42.30;;;;;;10503291;28;20609;-70
2022/01/19 18:56:23;;;;;;;12.23;10.87;;;6.40;42.10;;;;;;10503215;28;20224;-70
2022/01/19 19:01:28;;;;;;;9.43;8.53;;;6.50;42.00;;;;;;10505397;28;20598;-69
2022/01/19 19:06:31;;;;;;;7.70;6.97;;;6.50;41.80;;;;;;10504581;28;20247;-70
2022/01/19 19:11:47;;;;;;;6.60;5.83;;;6.60;41.80;;;;;;10503049;28;20572;-71
2022/01/19 19:16:51;;;;;;;5.87;5.27;;;6.80;41.80;;;;;;10505385;28;20223;-67
2022/01/19 19:21:55;;;;;;;7.60;5.60;;;6.90;41.30;;;;;;10506370;28;20247;-67
2022/01/19 19:26:58;;;;;;;5.80;5.27;;;7.10;41.40;;;;;;10505730;28;20228;-67
2022/01/19 19:32:03;;;;;;;5.33;4.83;;;7.20;41.30;;;;;;10500084;28;20228;-68
2022/01/19 19:37:10;;;;;;;6.87;5.40;;;7.30;40.90;;;;;;10512107;28;20242;-69
2022/01/19 19:42:13;;;;;;;5.33;4.80;;;7.40;41.00;;;;;;10515005;28;20228;-69
2022/01/19 19:47:18;;;;;;;5.43;4.93;;;7.50;40.80;;;;;;10516760;27;20589;-67
2022/01/19 19:52:21;;;;;;;6.10;5.33;;;7.50;40.60;;;;;;10512775;28;22019;-67
2022/01/19 19:57:25;;;;;;;6.90;5.87;;;7.60;40.50;;;;;;10513331;28;20227;-67
2022/01/19 20:02:29;;;;;;;7.73;6.67;;;7.60;40.60;;;;;;10506704;28;20679;-67
2022/01/19 20:07:33;;;;;;;7.87;6.77;;;7.60;40.30;;;;;;10499810;28;20235;-67
2022/01/19 20:12:36;;;;;;;7.80;7.10;;;7.70;40.60;;;;;;10513818;28;20232;-69
2022/01/19 20:17:41;;;;;;;10.23;9.23;;;7.70;40.60;;;;;;10510353;28;20251;-71
2022/01/19 20:22:44;;;;;;;10.30;9.20;;;7.70;40.50;;;;;;10510817;28;20219;-72
2022/01/19 20:27:48;;;;;;;10.87;9.80;;;7.70;40.50;;;;;;10513246;28;20234;-71
2022/01/19 20:32:52;;;;;;;11.37;10.27;;;7.80;40.70;;;;;;10511348;28;20224;-71
2022/01/19 20:37:55;;;;;;;10.40;8.87;;;7.70;40.60;;;;;;10511015;28;20227;-67
2022/01/19 20:42:59;;;;;;;9.73;8.80;;;7.70;40.80;;;;;;10511102;28;20613;-68
2022/01/19 20:48:04;;;;;;;11.50;9.37;;;7.70;40.70;;;;;;10511109;28;20251;-68
2022/01/19 20:53:08;;;;;;;10.43;9.33;;;7.70;40.60;;;;;;10509346;28;20227;-68
2022/01/19 20:58:12;;;;;;;9.70;8.70;;;7.70;40.70;;;;;;10510069;28;20741;-68
2022/01/19 21:03:18;;;;;;;7.30;6.60;;;7.70;40.60;;;;;;10510195;28;20268;-68
2022/01/19 21:08:21;;;;;;;9.03;8.10;;;7.80;40.20;;;;;;10509341;28;20234;-68
2022/01/19 21:13:24;;;;;;;7.83;7.13;;;7.80;40.30;;;;;;10508872;28;20227;-68
2022/01/19 21:18:31;;;;;;;8.43;7.53;;;7.80;40.40;;;;;;10509651;28;20252;-68
2022/01/19 21:23:34;;;;;;;7.97;7.17;;;7.80;40.10;;;;;;10505552;28;20220;-68
2022/01/19 21:28:38;;;;;;;7.83;7.10;;;7.80;40.20;;;;;;10507549;28;20238;-67
2022/01/19 21:33:43;;;;;;;7.33;6.63;;;7.80;40.20;;;;;;10504331;28;20222;-68
2022/01/19 21:38:46;;;;;;;7.47;6.50;;;7.80;39.90;;;;;;10508818;28;20578;-67
2022/01/19 21:43:50;;;;;;;7.23;6.53;;;7.80;40.10;;;;;;10510741;28;20937;-67
2022/01/19 21:48:54;;;;;;;7.77;7.07;;;7.80;40.00;;;;;;10505918;28;21052;-68
2022/01/19 21:53:58;;;;;;;7.70;6.90;;;7.80;39.70;;;;;;10492225;28;20227;-68
2022/01/19 21:59:01;;;;;;;6.97;6.23;;;7.70;39.90;;;;;;10493375;28;20227;-68
2022/01/19 22:04:06;;;;;;;6.80;5.90;;;7.70;39.90;;;;;;10499850;28;20215;-68
2022/01/19 22:09:18;;;;;;;6.60;5.93;;;7.70;39.50;;;;;;10494316;28;20220;-68
2022/01/19 22:14:22;;;;;;;5.90;5.30;;;7.70;39.70;;;;;;10492120;28;20237;-68
2022/01/19 22:19:27;;;;;;;6.13;5.60;;;7.70;39.60;;;;;;10493086;28;21034;-68
2022/01/19 22:24:30;;;;;;;5.80;5.30;;;7.70;39.50;;;;;;10506296;28;20218;-68
2022/01/19 22:29:34;;;;;;;6.20;5.63;;;7.70;39.50;;;;;;10506118;28;20235;-68
2022/01/19 22:34:38;;;;;;;5.10;4.60;;;7.60;39.20;;;;;;10500882;28;20716;-68
2022/01/19 22:39:42;;;;;;;6.07;5.10;;;7.60;39.10;;;;;;10509694;28;20235;-68
2022/01/19 22:44:45;;;;;;;5.50;5.00;;;7.60;39.20;;;;;;10506587;28;20223;-68
2022/01/19 22:49:49;;;;;;;5.70;5.10;;;7.60;39.30;;;;;;10503716;28;20266;-68
2022/01/19 22:54:53;;;;;;;4.93;4.53;;;7.60;38.90;;;;;;10500457;28;20250;-68
2022/01/19 22:59:56;;;;;;;4.80;4.40;;;7.60;39.00;;;;;;10505152;28;20255;-67
2022/01/19 23:05:01;;;;;;;4.60;4.20;;;7.60;39.30;;;;;;10505409;28;20261;-68
2022/01/19 23:10:05;;;;;;;4.70;4.30;;;7.60;38.90;;;;;;10502802;28;20249;-68
2022/01/19 23:15:09;;;;;;;4.20;3.90;;;7.60;39.00;;;;;;10510437;28;20222;-68
2022/01/19 23:20:15;;;;;;;4.03;3.73;;;7.60;39.00;;;;;;10481135;28;20220;-68
2022/01/19 23:25:18;;;;;;;4.63;4.23;;;7.60;38.90;;;;;;10467441;28;20711;-68
2022/01/19 23:30:22;;;;;;;3.83;3.53;;;7.60;38.90;;;;;;10476259;28;20849;-68
2022/01/19 23:35:30;;;;;;;4.27;3.90;;;7.60;38.90;;;;;;10471895;28;20601;-68
2022/01/19 23:51:30;;;;;;;4.23;3.83;;;7.60;39.00;;;;;;10511441;28;20760;-71
2022/01/19 23:56:45;;;;;;;4.57;4.17;;;7.60;38.90;;;;;;10509574;28;20235;-72
